createdAt,value
2017-12-14T00:00:01.656Z,22.00
2017-12-14T00:01:04.154Z,20.00
2017-12-14T00:02:06.614Z,29.90
2017-12-14T00:03:09.083Z,20.70
2017-12-14T00:04:11.557Z,22.03
2017-12-14T00:05:14.037Z,21.57
2017-12-14T00:06:16.532Z,23.23
2017-12-14T00:07:19.020Z,23.73
2017-12-14T00:08:21.481Z,27.13
2017-12-14T00:09:23.946Z,19.50
2017-12-14T00:10:32.222Z,23.53
2017-12-14T00:11:34.721Z,26.50
2017-12-14T00:12:37.192Z,28.03
2017-12-14T00:13:39.651Z,22.30
2017-12-14T00:14:42.106Z,20.23
2017-12-14T00:15:44.729Z,24.37
2017-12-14T00:16:47.224Z,21.70
2017-12-14T00:17:49.682Z,20.57
2017-12-14T00:18:52.139Z,20.13
2017-12-14T00:19:54.602Z,18.97
2017-12-14T00:20:57.100Z,20.57
2017-12-14T00:21:59.582Z,21.30
2017-12-14T00:23:02.070Z,22.97
2017-12-14T00:24:03.985Z,20.23
2017-12-14T00:25:05.900Z,20.17
2017-12-14T00:26:08.395Z,19.73
2017-12-14T00:27:10.893Z,26.20
2017-12-14T00:28:13.356Z,19.77
2017-12-14T00:29:15.829Z,19.23
2017-12-14T00:30:18.305Z,22.83
2017-12-14T00:31:20.780Z,17.60
2017-12-14T00:32:23.262Z,24.50
2017-12-14T00:33:25.722Z,18.30
2017-12-14T00:34:28.182Z,17.77
2017-12-14T00:35:30.652Z,18.30
2017-12-14T00:36:33.109Z,21.63
2017-12-14T00:37:35.595Z,19.50
2017-12-14T00:38:38.070Z,19.27
2017-12-14T00:39:40.546Z,18.00
2017-12-14T00:40:43.020Z,21.03
2017-12-14T00:41:45.480Z,16.77
2017-12-14T00:42:47.970Z,16.80
2017-12-14T00:43:50.426Z,19.63
2017-12-14T00:44:52.893Z,17.93
2017-12-14T00:45:55.350Z,16.97
2017-12-14T00:46:57.828Z,19.43
2017-12-14T00:48:00.325Z,39.10
2017-12-14T00:49:02.801Z,17.23
2017-12-14T00:50:05.261Z,20.40
2017-12-14T00:51:07.736Z,19.27
2017-12-14T00:52:10.212Z,25.90
2017-12-14T00:53:12.694Z,15.30
2017-12-14T00:54:15.152Z,17.23
2017-12-14T00:55:17.631Z,20.10
2017-12-14T00:56:20.112Z,18.57
2017-12-14T00:57:22.584Z,19.20
2017-12-14T00:58:25.083Z,17.90
2017-12-14T00:59:27.545Z,18.20
2017-12-14T01:00:30.037Z,23.50
2017-12-14T01:01:32.495Z,20.00
2017-12-14T01:02:34.968Z,19.27
2017-12-14T01:03:37.450Z,13.83
2017-12-14T01:04:39.929Z,14.90
2017-12-14T01:05:42.403Z,16.63
2017-12-14T01:06:44.880Z,17.30
2017-12-14T01:07:47.353Z,15.93
2017-12-14T01:08:49.827Z,16.20
2017-12-14T01:09:52.294Z,21.10
2017-12-14T01:10:54.751Z,17.30
2017-12-14T01:11:57.224Z,16.43
2017-12-14T01:12:59.701Z,15.17
2017-12-14T01:14:02.190Z,14.80
2017-12-14T01:15:04.651Z,12.90
2017-12-14T01:16:07.118Z,21.07
2017-12-14T01:17:09.602Z,19.03
2017-12-14T01:18:12.080Z,15.10
2017-12-14T01:19:14.566Z,15.87
2017-12-14T01:20:17.035Z,17.33
2017-12-14T01:21:19.512Z,22.23
2017-12-14T01:22:21.968Z,17.90
2017-12-14T01:23:24.444Z,14.67
2017-12-14T01:24:26.941Z,13.00
2017-12-14T01:25:29.398Z,12.43
2017-12-14T01:26:31.862Z,15.13
2017-12-14T01:27:34.337Z,13.80
2017-12-14T01:28:36.808Z,14.93
2017-12-14T01:29:39.291Z,16.43
2017-12-14T01:30:41.760Z,13.00
2017-12-14T01:31:44.242Z,13.23
2017-12-14T01:32:46.719Z,14.07
2017-12-14T01:33:49.177Z,17.57
2017-12-14T01:34:51.660Z,13.17
2017-12-14T01:35:54.114Z,12.83
2017-12-14T01:36:56.591Z,14.10
2017-12-14T01:37:59.054Z,15.03
2017-12-14T01:39:01.513Z,15.67
2017-12-14T01:40:04.021Z,15.03
2017-12-14T01:41:06.478Z,15.03
2017-12-14T01:42:08.949Z,13.63
2017-12-14T01:43:11.424Z,15.20
2017-12-14T01:44:13.879Z,16.57
2017-12-14T01:45:16.373Z,13.13
2017-12-14T01:46:18.825Z,14.17
2017-12-14T01:47:21.295Z,18.40
2017-12-14T01:48:23.755Z,18.43
2017-12-14T01:49:26.228Z,12.83
2017-12-14T01:50:28.706Z,13.60
2017-12-14T01:51:31.162Z,13.23
2017-12-14T01:52:33.646Z,13.93
2017-12-14T01:53:36.132Z,13.40
2017-12-14T01:54:38.605Z,14.90
2017-12-14T01:55:41.105Z,14.10
2017-12-14T01:56:43.600Z,10.47
2017-12-14T01:57:46.076Z,13.97
2017-12-14T01:58:48.530Z,11.80
2017-12-14T01:59:50.982Z,15.23
2017-12-14T02:00:53.486Z,13.20
2017-12-14T02:01:55.957Z,14.80
2017-12-14T02:02:58.440Z,15.23
2017-12-14T02:04:00.894Z,15.53
2017-12-14T02:05:03.368Z,13.80
2017-12-14T02:06:05.846Z,15.73
2017-12-14T02:07:08.306Z,13.40
2017-12-14T02:08:10.759Z,11.87
2017-12-14T02:09:13.223Z,12.30
2017-12-14T02:10:15.697Z,14.33
2017-12-14T02:11:18.205Z,13.13
2017-12-14T02:12:20.658Z,17.30
2017-12-14T02:13:23.109Z,15.00
2017-12-14T02:14:25.583Z,11.30
2017-12-14T02:15:28.048Z,10.73
2017-12-14T02:16:30.526Z,11.37
2017-12-14T02:17:32.993Z,12.27
2017-12-14T02:18:35.447Z,12.30
2017-12-14T02:19:37.942Z,12.37
2017-12-14T02:20:40.429Z,11.30
2017-12-14T02:21:42.957Z,11.83
2017-12-14T02:22:45.422Z,10.68
2017-12-14T02:23:47.892Z,12.03
2017-12-14T02:24:50.362Z,14.67
2017-12-14T02:25:52.835Z,12.80
2017-12-14T02:26:55.320Z,9.87
2017-12-14T02:27:57.778Z,12.47
2017-12-14T02:29:00.253Z,11.27
2017-12-14T02:30:02.714Z,11.10
2017-12-14T02:31:05.170Z,14.27
2017-12-14T02:32:07.658Z,10.70
2017-12-14T02:33:10.114Z,10.03
2017-12-14T02:34:12.576Z,8.90
2017-12-14T02:35:15.031Z,10.13
2017-12-14T02:36:17.509Z,10.43
2017-12-14T02:37:19.995Z,13.25
2017-12-14T02:38:22.454Z,12.30
2017-12-14T02:39:24.917Z,19.13
2017-12-14T02:40:27.388Z,12.63
2017-12-14T02:41:29.879Z,15.60
2017-12-14T02:42:32.377Z,10.40
2017-12-14T02:43:34.899Z,12.23
2017-12-14T02:44:37.352Z,12.83
2017-12-14T02:45:39.824Z,12.10
2017-12-14T02:46:42.278Z,11.63
2017-12-14T02:47:44.742Z,9.20
2017-12-14T02:48:47.209Z,9.87
2017-12-14T02:49:49.763Z,15.90
2017-12-14T02:50:52.223Z,11.93
2017-12-14T02:51:54.688Z,11.20
2017-12-14T02:52:57.177Z,14.93
2017-12-14T02:53:59.634Z,12.17
2017-12-14T02:55:02.097Z,10.70
2017-12-14T02:56:04.554Z,10.70
2017-12-14T02:57:07.023Z,10.60
2017-12-14T02:58:09.488Z,16.63
2017-12-14T02:59:11.946Z,12.30
2017-12-14T03:00:14.404Z,9.90
2017-12-14T03:01:16.888Z,12.53
2017-12-14T03:02:19.366Z,14.87
2017-12-14T03:03:21.831Z,11.13
2017-12-14T03:04:24.302Z,9.20
2017-12-14T03:05:26.762Z,11.60
2017-12-14T03:06:29.214Z,9.50
2017-12-14T03:07:31.670Z,10.27
2017-12-14T03:08:34.141Z,11.80
2017-12-14T03:09:36.612Z,10.83
2017-12-14T03:10:39.085Z,9.60
2017-12-14T03:11:41.542Z,14.33
2017-12-14T03:12:44.002Z,11.07
2017-12-14T03:13:46.468Z,7.47
2017-12-14T03:14:48.921Z,9.80
2017-12-14T03:15:51.386Z,13.32
2017-12-14T03:16:53.854Z,13.02
2017-12-14T03:17:56.334Z,9.70
2017-12-14T03:18:58.792Z,11.30
2017-12-14T03:20:01.277Z,10.75
2017-12-14T03:21:04.640Z,6.83
2017-12-14T03:22:07.099Z,16.70
2017-12-14T03:23:09.568Z,7.97
2017-12-14T03:24:11.314Z,14.60
2017-12-14T03:25:13.785Z,7.37
2017-12-14T03:26:16.239Z,9.80
2017-12-14T03:27:18.704Z,8.70
2017-12-14T03:28:21.162Z,8.85
2017-12-14T03:29:22.931Z,8.90
2017-12-14T03:30:25.416Z,12.20
2017-12-14T03:31:27.881Z,15.33
2017-12-14T03:32:30.429Z,7.77
2017-12-14T03:33:32.883Z,8.50
2017-12-14T03:34:35.361Z,12.10
2017-12-14T03:35:37.826Z,6.70
2017-12-14T03:36:40.300Z,7.65
2017-12-14T03:37:42.750Z,9.17
2017-12-14T03:38:45.231Z,10.60
2017-12-14T03:39:47.682Z,8.83
2017-12-14T03:40:51.106Z,10.45
2017-12-14T03:41:53.578Z,7.75
2017-12-14T03:42:56.031Z,6.93
2017-12-14T03:43:58.487Z,13.20
2017-12-14T03:45:00.961Z,7.93
2017-12-14T03:46:03.410Z,7.53
2017-12-14T03:47:05.883Z,12.53
2017-12-14T03:48:08.352Z,10.20
2017-12-14T03:49:10.816Z,9.63
2017-12-14T03:50:13.285Z,8.57
2017-12-14T03:51:15.742Z,12.43
2017-12-14T03:52:18.195Z,8.93
2017-12-14T03:53:20.650Z,12.80
2017-12-14T03:54:23.142Z,11.05
2017-12-14T03:55:25.611Z,9.50
2017-12-14T03:56:28.084Z,10.00
2017-12-14T03:57:30.547Z,7.47
2017-12-14T03:58:33.021Z,8.97
2017-12-14T03:59:35.478Z,8.33
2017-12-14T04:00:37.935Z,6.93
2017-12-14T04:01:40.403Z,10.07
2017-12-14T04:02:42.884Z,8.63
2017-12-14T04:03:45.351Z,8.85
2017-12-14T04:04:47.815Z,6.53
2017-12-14T04:05:50.274Z,9.38
2017-12-14T04:06:52.741Z,8.00
2017-12-14T04:07:55.207Z,10.52
2017-12-14T04:08:57.676Z,7.57
2017-12-14T04:10:00.154Z,14.45
2017-12-14T04:11:02.642Z,13.83
2017-12-14T04:12:05.114Z,13.25
2017-12-14T04:13:07.574Z,7.63
2017-12-14T04:14:10.040Z,11.13
2017-12-14T04:15:12.520Z,8.25
2017-12-14T04:16:14.973Z,7.17
2017-12-14T04:17:17.428Z,8.93
2017-12-14T04:18:19.901Z,8.38
2017-12-14T04:19:22.351Z,8.77
2017-12-14T04:20:24.837Z,7.35
2017-12-14T04:21:27.320Z,7.90
2017-12-14T04:22:29.805Z,10.10
2017-12-14T04:23:32.272Z,5.77
2017-12-14T04:24:34.734Z,4.93
2017-12-14T04:25:37.198Z,7.53
2017-12-14T04:26:39.646Z,9.67
2017-12-14T04:27:42.102Z,4.90
2017-12-14T04:28:44.581Z,6.40
2017-12-14T04:29:47.063Z,4.13
2017-12-14T04:30:49.530Z,8.52
2017-12-14T04:31:51.290Z,6.80
2017-12-14T04:32:53.749Z,5.63
2017-12-14T04:33:56.217Z,9.17
2017-12-14T04:34:58.677Z,8.40
2017-12-14T04:36:01.148Z,6.27
2017-12-14T04:37:03.616Z,8.90
2017-12-14T04:38:06.080Z,6.67
2017-12-14T04:39:08.551Z,7.72
2017-12-14T04:40:11.021Z,6.30
2017-12-14T04:41:13.490Z,9.90
2017-12-14T04:42:15.942Z,7.27
2017-12-14T04:43:18.398Z,6.70
2017-12-14T04:44:20.854Z,6.30
2017-12-14T04:45:23.319Z,11.23
2017-12-14T04:46:25.909Z,8.43
2017-12-14T04:47:28.369Z,8.73
2017-12-14T04:48:30.838Z,11.27
2017-12-14T04:49:33.295Z,6.27
2017-12-14T04:50:35.765Z,6.63
2017-12-14T04:51:38.233Z,10.17
2017-12-14T04:52:40.698Z,9.50
2017-12-14T04:53:43.166Z,5.13
2017-12-14T04:54:45.619Z,5.67
2017-12-14T04:55:48.096Z,8.32
2017-12-14T04:56:50.546Z,4.40
2017-12-14T04:57:53.000Z,7.30
2017-12-14T04:58:55.485Z,5.05
2017-12-14T04:59:57.965Z,8.48
2017-12-14T05:01:00.428Z,5.30
2017-12-14T05:02:02.886Z,8.60
2017-12-14T05:03:05.356Z,4.77
2017-12-14T05:04:07.832Z,6.70
2017-12-14T05:05:10.305Z,7.77
2017-12-14T05:06:12.776Z,6.50
2017-12-14T05:07:15.252Z,5.32
2017-12-14T05:08:17.757Z,7.67
2017-12-14T05:09:20.223Z,9.48
2017-12-14T05:10:22.674Z,6.87
2017-12-14T05:11:25.140Z,5.77
2017-12-14T05:12:27.607Z,7.18
2017-12-14T05:13:30.070Z,5.90
2017-12-14T05:14:32.540Z,6.03
2017-12-14T05:15:34.991Z,9.10
2017-12-14T05:16:37.458Z,5.72
2017-12-14T05:17:39.933Z,14.47
2017-12-14T05:18:42.421Z,6.20
2017-12-14T05:19:44.894Z,4.53
2017-12-14T05:20:47.343Z,8.00
2017-12-14T05:21:49.794Z,6.53
2017-12-14T05:22:52.264Z,7.50
2017-12-14T05:23:54.736Z,5.43
2017-12-14T05:24:57.212Z,5.30
2017-12-14T05:25:59.676Z,5.03
2017-12-14T05:27:02.168Z,6.28
2017-12-14T05:28:04.628Z,8.83
2017-12-14T05:29:07.104Z,5.80
2017-12-14T05:30:09.648Z,4.90
2017-12-14T05:31:12.120Z,4.93
2017-12-14T05:32:14.584Z,6.73
2017-12-14T05:33:17.065Z,9.65
2017-12-14T05:34:19.528Z,5.23
2017-12-14T05:35:22.006Z,6.37
2017-12-14T05:36:24.481Z,20.53
2017-12-14T05:37:26.950Z,13.57
2017-12-14T05:38:29.406Z,4.80
2017-12-14T05:39:31.859Z,6.03
2017-12-14T05:40:34.314Z,4.80
2017-12-14T05:41:36.812Z,3.67
2017-12-14T05:42:39.292Z,6.82
2017-12-14T05:43:41.758Z,6.72
2017-12-14T05:44:44.225Z,7.30
2017-12-14T05:45:46.696Z,4.77
2017-12-14T05:46:49.176Z,4.70
2017-12-14T05:47:52.496Z,7.53
2017-12-14T05:48:54.980Z,7.20
2017-12-14T05:49:57.434Z,5.10
2017-12-14T05:50:59.914Z,5.20
2017-12-14T05:52:02.370Z,8.90
2017-12-14T05:53:04.837Z,3.53
2017-12-14T05:54:07.316Z,5.07
2017-12-14T05:55:09.775Z,5.23
2017-12-14T05:56:12.253Z,5.20
2017-12-14T05:57:14.729Z,10.80
2017-12-14T05:58:17.196Z,5.77
2017-12-14T05:59:19.663Z,6.10
2017-12-14T06:00:22.128Z,5.17
2017-12-14T06:01:24.610Z,10.45
2017-12-14T06:02:27.073Z,16.50
2017-12-14T06:03:29.548Z,5.18
2017-12-14T06:04:32.050Z,8.70
2017-12-14T06:05:34.523Z,7.10
2017-12-14T06:06:36.995Z,4.50
2017-12-14T06:07:39.469Z,6.40
2017-12-14T06:08:41.954Z,7.28
2017-12-14T06:09:44.450Z,5.93
2017-12-14T06:10:46.902Z,5.73
2017-12-14T06:11:49.358Z,6.93
2017-12-14T06:12:51.815Z,13.00
2017-12-14T06:13:54.299Z,19.10
2017-12-14T06:14:56.796Z,9.07
2017-12-14T06:15:59.254Z,18.83
2017-12-14T06:17:01.714Z,6.67
2017-12-14T06:18:04.200Z,7.70
2017-12-14T06:19:06.704Z,8.83
2017-12-14T06:20:09.192Z,6.90
2017-12-14T06:21:11.646Z,13.03
2017-12-14T06:22:14.127Z,4.90
2017-12-14T06:23:16.612Z,9.93
2017-12-14T06:24:19.103Z,13.55
2017-12-14T06:25:21.578Z,10.30
2017-12-14T06:26:24.053Z,12.37
2017-12-14T06:27:26.523Z,11.77
2017-12-14T06:28:28.986Z,15.00
2017-12-14T06:29:31.442Z,12.63
2017-12-14T06:30:33.950Z,14.98
2017-12-14T06:31:36.425Z,15.97
2017-12-14T06:32:38.952Z,17.40
2017-12-14T06:33:41.425Z,21.70
2017-12-14T06:34:43.896Z,13.83
2017-12-14T06:35:46.386Z,14.07
2017-12-14T06:36:48.864Z,15.05
2017-12-14T06:37:52.194Z,16.07
2017-12-14T06:38:54.670Z,13.20
2017-12-14T06:39:57.168Z,15.65
2017-12-14T06:40:59.677Z,21.85
2017-12-14T06:42:02.160Z,16.67
2017-12-14T06:43:04.629Z,16.58
2017-12-14T06:44:07.114Z,15.13
2017-12-14T06:45:09.597Z,27.48
2017-12-14T06:46:12.091Z,13.77
2017-12-14T06:47:14.590Z,13.88
2017-12-14T06:48:17.077Z,15.52
2017-12-14T06:49:19.561Z,16.85
2017-12-14T06:50:22.045Z,17.65
2017-12-14T06:51:24.546Z,17.37
2017-12-14T06:52:27.049Z,13.65
2017-12-14T06:53:29.523Z,15.07
2017-12-14T06:54:31.999Z,22.85
2017-12-14T06:55:34.554Z,17.17
2017-12-14T06:56:37.060Z,30.45
2017-12-14T06:57:39.536Z,11.43
2017-12-14T06:58:42.007Z,24.63
2017-12-14T06:59:44.466Z,17.33
2017-12-14T07:00:46.949Z,13.82
2017-12-14T07:01:49.497Z,15.10
2017-12-14T07:03:03.827Z,14.25
2017-12-14T07:04:06.298Z,10.00
2017-12-14T07:05:08.779Z,12.67
2017-12-14T07:06:11.263Z,13.38
2017-12-14T07:07:13.750Z,19.87
2017-12-14T07:08:16.223Z,22.55
2017-12-14T07:09:18.687Z,10.47
2017-12-14T07:10:21.189Z,15.00
2017-12-14T07:11:23.706Z,29.35
2017-12-14T07:12:26.212Z,12.83
2017-12-14T07:13:28.692Z,13.52
2017-12-14T07:14:31.189Z,17.33
2017-12-14T07:15:33.741Z,13.80
2017-12-14T07:16:36.224Z,20.25
2017-12-14T07:17:38.728Z,12.80
2017-12-14T07:18:41.209Z,11.02
2017-12-14T07:19:43.674Z,19.98
2017-12-14T07:20:46.157Z,10.07
2017-12-14T07:21:48.636Z,15.57
2017-12-14T07:22:51.111Z,25.00
2017-12-14T07:23:53.581Z,12.23
2017-12-14T07:24:56.072Z,23.35
2017-12-14T07:25:58.544Z,17.73
2017-12-14T07:27:01.011Z,11.50
2017-12-14T07:28:03.524Z,17.02
2017-12-14T07:29:06.066Z,15.98
2017-12-14T07:30:08.534Z,22.20
2017-12-14T07:31:11.028Z,11.77
2017-12-14T07:32:13.736Z,15.85
2017-12-14T07:33:16.259Z,13.73
2017-12-14T07:34:18.717Z,19.47
2017-12-14T07:35:21.201Z,24.63
2017-12-14T07:36:23.681Z,12.67
2017-12-14T07:37:26.146Z,23.02
2017-12-14T07:38:28.652Z,15.10
2017-12-14T07:39:31.131Z,16.73
2017-12-14T07:40:33.616Z,14.18
2017-12-14T07:41:36.083Z,13.35
2017-12-14T07:42:50.304Z,13.85
2017-12-14T07:44:04.530Z,13.50
2017-12-14T07:45:18.738Z,19.10
2017-12-14T07:46:30.976Z,21.43
2017-12-14T07:47:33.443Z,16.80
2017-12-14T07:48:35.931Z,13.23
2017-12-14T07:49:38.411Z,14.00
2017-12-14T07:50:40.905Z,11.87
2017-12-14T07:51:43.359Z,13.30
2017-12-14T07:52:45.826Z,14.48
2017-12-14T07:53:48.314Z,13.30
2017-12-14T07:54:50.806Z,12.67
2017-12-14T07:55:53.276Z,14.65
2017-12-14T07:56:55.770Z,10.57
2017-12-14T07:57:58.285Z,18.75
2017-12-14T07:59:00.822Z,10.40
2017-12-14T08:00:03.319Z,25.92
2017-12-14T08:01:05.801Z,12.75
2017-12-14T08:02:08.284Z,10.70
2017-12-14T08:03:10.781Z,11.90
2017-12-14T08:04:13.257Z,13.82
2017-12-14T08:05:15.761Z,9.70
2017-12-14T08:06:18.234Z,10.52
2017-12-14T08:07:20.714Z,13.15
2017-12-14T08:08:23.210Z,10.48
2017-12-14T08:09:25.680Z,14.25
2017-12-14T08:10:28.171Z,10.48
2017-12-14T08:11:30.626Z,15.80
2017-12-14T08:12:33.097Z,18.33
2017-12-14T08:13:35.563Z,14.82
2017-12-14T08:14:38.044Z,12.15
2017-12-14T08:15:40.557Z,26.52
2017-12-14T08:16:43.033Z,9.30
2017-12-14T08:17:45.522Z,10.75
2017-12-14T08:18:48.017Z,10.70
2017-12-14T08:19:50.691Z,12.20
2017-12-14T08:20:53.178Z,14.05
2017-12-14T08:21:55.646Z,12.63
2017-12-14T08:22:58.130Z,19.33
2017-12-14T08:24:00.611Z,16.05
2017-12-14T08:25:03.097Z,22.40
2017-12-14T08:26:05.605Z,20.27
2017-12-14T08:27:08.214Z,18.42
2017-12-14T08:28:10.741Z,21.25
2017-12-14T08:29:13.224Z,24.65
2017-12-14T08:30:15.820Z,26.75
2017-12-14T08:31:18.327Z,23.83
2017-12-14T08:32:20.807Z,21.02
2017-12-14T08:33:23.283Z,21.95
2017-12-14T08:34:25.752Z,25.60
2017-12-14T08:35:28.237Z,20.02
2017-12-14T08:36:30.745Z,22.33
2017-12-14T08:37:33.216Z,21.85
2017-12-14T08:38:35.717Z,24.80
2017-12-14T08:39:38.194Z,20.90
2017-12-14T08:40:40.666Z,18.40
2017-12-14T08:41:43.172Z,17.73
2017-12-14T08:42:46.163Z,18.17
2017-12-14T08:43:48.666Z,31.27
2017-12-14T08:44:51.179Z,19.12
2017-12-14T08:45:53.652Z,19.60
2017-12-14T08:46:56.140Z,16.23
2017-12-14T08:47:58.611Z,45.45
2017-12-14T08:49:01.079Z,21.65
2017-12-14T08:50:03.548Z,24.93
2017-12-14T08:51:06.021Z,24.58
2017-12-14T08:52:08.528Z,17.98
2017-12-14T08:53:10.995Z,13.57
2017-12-14T08:54:13.467Z,18.05
2017-12-14T08:55:15.976Z,16.58
2017-12-14T08:56:18.460Z,13.62
2017-12-14T08:57:20.965Z,13.77
2017-12-14T08:58:23.432Z,11.55
2017-12-14T08:59:25.913Z,17.10
2017-12-14T09:00:28.383Z,11.05
2017-12-14T09:01:30.886Z,12.60
2017-12-14T09:02:33.402Z,14.30
2017-12-14T09:03:35.866Z,7.78
2017-12-14T09:04:38.352Z,14.38
2017-12-14T09:05:40.822Z,11.10
2017-12-14T09:06:43.330Z,12.67
2017-12-14T09:07:46.177Z,8.30
2017-12-14T09:08:48.641Z,11.60
2017-12-14T09:09:51.111Z,7.75
2017-12-14T09:10:53.592Z,21.12
2017-12-14T09:11:56.065Z,9.25
2017-12-14T09:12:58.568Z,10.25
2017-12-14T09:14:01.120Z,8.50
2017-12-14T09:15:03.582Z,9.13
2017-12-14T09:16:06.054Z,11.05
2017-12-14T09:17:08.511Z,8.77
2017-12-14T09:18:11.005Z,12.50
2017-12-14T09:19:13.484Z,6.50
2017-12-14T09:20:15.979Z,11.80
2017-12-14T09:21:18.448Z,8.75
2017-12-14T09:22:20.927Z,14.68
2017-12-14T09:23:23.458Z,8.43
2017-12-14T09:24:25.915Z,9.10
2017-12-14T09:25:28.374Z,6.80
2017-12-14T09:26:30.843Z,18.73
2017-12-14T09:27:33.338Z,12.13
2017-12-14T09:28:35.828Z,14.05
2017-12-14T09:29:38.317Z,14.82
2017-12-14T09:30:40.779Z,13.65
2017-12-14T09:31:43.258Z,12.07
2017-12-14T09:32:45.735Z,8.00
2017-12-14T09:33:48.233Z,10.93
2017-12-14T09:34:51.798Z,12.27
2017-12-14T09:35:54.287Z,9.45
2017-12-14T09:36:56.747Z,9.80
2017-12-14T09:37:59.373Z,13.75
2017-12-14T09:39:01.838Z,9.60
2017-12-14T09:40:04.317Z,17.20
2017-12-14T09:41:06.797Z,12.98
2017-12-14T09:42:09.281Z,10.48
2017-12-14T09:43:11.773Z,11.18
2017-12-14T09:44:14.277Z,15.82
2017-12-14T09:45:16.738Z,14.90
2017-12-14T09:46:19.216Z,7.40
2017-12-14T09:47:21.872Z,10.88
2017-12-14T09:48:24.356Z,7.47
2017-12-14T09:49:26.857Z,9.55
2017-12-14T09:50:29.336Z,15.52
2017-12-14T09:51:31.812Z,14.07
2017-12-14T09:52:34.296Z,7.47
2017-12-14T09:53:36.776Z,10.50
2017-12-14T09:54:39.280Z,12.30
2017-12-14T09:55:41.747Z,10.23
2017-12-14T09:56:44.217Z,9.50
2017-12-14T09:57:47.048Z,9.73
2017-12-14T09:58:49.521Z,8.43
2017-12-14T09:59:52.951Z,13.20
2017-12-14T10:00:55.509Z,14.60
2017-12-14T10:01:57.989Z,10.98
2017-12-14T10:03:00.458Z,10.77
2017-12-14T10:04:02.944Z,16.08
2017-12-14T10:05:05.413Z,9.18
2017-12-14T10:06:07.901Z,10.07
2017-12-14T10:07:10.397Z,16.55
2017-12-14T10:08:12.873Z,9.50
2017-12-14T10:09:15.373Z,12.85
2017-12-14T10:10:17.905Z,8.60
2017-12-14T10:11:20.420Z,9.60
2017-12-14T10:12:22.892Z,9.50
2017-12-14T10:13:25.774Z,11.50
2017-12-14T10:14:28.324Z,10.18
2017-12-14T10:15:30.906Z,17.00
2017-12-14T10:16:33.373Z,12.80
2017-12-14T10:17:35.968Z,11.40
2017-12-14T10:18:38.440Z,20.13
2017-12-14T10:19:40.906Z,14.10
2017-12-14T10:20:43.448Z,14.27
2017-12-14T10:21:45.911Z,19.55
2017-12-14T10:22:48.397Z,14.63
2017-12-14T10:23:50.882Z,16.42
2017-12-14T10:24:53.355Z,11.77
2017-12-14T10:25:55.821Z,9.00
2017-12-14T10:26:58.290Z,12.15
2017-12-14T10:28:00.802Z,11.23
2017-12-14T10:29:03.276Z,10.10
2017-12-14T10:30:05.754Z,13.10
2017-12-14T10:31:08.300Z,12.05
2017-12-14T10:32:10.872Z,10.45
2017-12-14T10:33:13.349Z,8.70
2017-12-14T10:34:15.877Z,12.77
2017-12-14T10:35:18.298Z,13.20
2017-12-14T10:36:20.803Z,13.88
2017-12-14T10:37:23.365Z,19.50
2017-12-14T10:38:25.850Z,11.68
2017-12-14T10:39:28.330Z,12.55
2017-12-14T10:40:30.813Z,10.95
2017-12-14T10:41:33.283Z,11.77
2017-12-14T10:42:35.905Z,18.45
2017-12-14T10:43:38.401Z,14.43
2017-12-14T10:44:40.884Z,16.40
2017-12-14T10:45:43.360Z,14.68
2017-12-14T10:46:45.830Z,16.95
2017-12-14T10:47:48.353Z,16.95
2017-12-14T10:48:50.828Z,8.32
2017-12-14T10:49:53.299Z,12.52
2017-12-14T10:50:55.762Z,14.32
2017-12-14T10:51:58.245Z,26.48
2017-12-14T10:53:00.730Z,13.18
2017-12-14T10:54:03.206Z,17.70
2017-12-14T10:55:05.692Z,11.38
2017-12-14T10:56:08.173Z,17.10
2017-12-14T10:57:10.666Z,17.48
2017-12-14T10:58:13.251Z,18.90
2017-12-14T10:59:15.737Z,16.12
2017-12-14T11:00:18.236Z,11.30
2017-12-14T11:01:26.362Z,13.93
2017-12-14T11:02:28.831Z,14.73
2017-12-14T11:03:31.363Z,23.58
2017-12-14T11:04:33.831Z,12.82
2017-12-14T11:05:36.312Z,15.32
2017-12-14T11:06:38.800Z,19.10
2017-12-14T11:07:41.295Z,14.77
2017-12-14T11:08:43.780Z,12.07
2017-12-14T11:09:46.247Z,25.92
2017-12-14T11:10:48.716Z,11.88
2017-12-14T11:11:51.190Z,15.93
2017-12-14T11:12:53.673Z,14.43
2017-12-14T11:13:56.156Z,13.93
2017-12-14T11:14:58.614Z,9.57
2017-12-14T11:16:01.132Z,22.55
2017-12-14T11:17:03.620Z,14.18
2017-12-14T11:18:06.104Z,11.75
2017-12-14T11:19:08.597Z,17.95
2017-12-14T11:20:11.089Z,12.18
2017-12-14T11:21:13.555Z,15.57
2017-12-14T11:22:16.032Z,11.00
2017-12-14T11:23:18.502Z,10.15
2017-12-14T11:24:21.008Z,19.37
2017-12-14T11:25:23.496Z,14.52
2017-12-14T11:26:25.976Z,12.55
2017-12-14T11:27:28.483Z,19.87
2017-12-14T11:28:30.956Z,16.12
2017-12-14T11:29:33.426Z,11.63
2017-12-14T11:30:35.894Z,16.17
2017-12-14T11:31:38.358Z,17.08
2017-12-14T11:32:40.826Z,20.27
2017-12-14T11:33:43.342Z,22.40
2017-12-14T11:34:45.778Z,12.37
2017-12-14T11:35:48.391Z,20.10
2017-12-14T11:36:51.056Z,11.30
2017-12-14T11:37:53.573Z,17.50
2017-12-14T11:38:56.107Z,13.93
2017-12-14T11:39:58.590Z,14.50
2017-12-14T11:41:01.073Z,17.42
2017-12-14T11:42:03.552Z,15.75
2017-12-14T11:43:06.084Z,26.75
2017-12-14T11:44:08.560Z,26.77
2017-12-14T11:45:11.028Z,20.12
2017-12-14T11:46:13.495Z,10.30
2017-12-14T11:47:15.963Z,18.90
2017-12-14T11:48:18.457Z,15.55
2017-12-14T11:49:20.924Z,10.15
2017-12-14T11:50:23.395Z,16.35
2017-12-14T11:51:25.858Z,13.05
2017-12-14T11:52:28.322Z,10.73
2017-12-14T11:53:30.787Z,14.02
2017-12-14T11:54:33.260Z,11.02
2017-12-14T11:55:35.738Z,14.20
2017-12-14T11:56:38.223Z,14.02
2017-12-14T11:57:40.698Z,8.10
2017-12-14T11:58:43.184Z,12.37
2017-12-14T11:59:45.657Z,22.15
2017-12-14T12:00:48.137Z,16.10
2017-12-14T12:01:50.616Z,12.45
2017-12-14T12:02:53.111Z,17.92
2017-12-14T12:03:55.589Z,12.32
2017-12-14T12:04:58.068Z,11.12
2017-12-14T12:06:00.544Z,8.45
2017-12-14T12:07:03.010Z,18.67
2017-12-14T12:08:05.496Z,18.08
2017-12-14T12:09:07.981Z,19.08
2017-12-14T12:10:10.456Z,8.43
2017-12-14T12:11:12.918Z,14.10
2017-12-14T12:12:15.474Z,10.80
2017-12-14T12:13:17.972Z,19.20
2017-12-14T12:14:21.618Z,7.68
2017-12-14T12:15:24.527Z,11.15
2017-12-14T12:16:27.022Z,17.20
2017-12-14T12:17:29.508Z,13.10
2017-12-14T12:18:31.984Z,9.05
2017-12-14T12:19:34.481Z,11.82
2017-12-14T12:20:36.961Z,18.45
2017-12-14T12:21:39.446Z,7.43
2017-12-14T12:22:41.910Z,12.73
2017-12-14T12:23:44.471Z,10.15
2017-12-14T12:24:46.953Z,15.80
2017-12-14T12:25:49.430Z,10.70
2017-12-14T12:26:51.895Z,14.30
2017-12-14T12:27:54.358Z,15.23
2017-12-14T12:28:56.946Z,11.40
2017-12-14T12:29:59.548Z,10.10
2017-12-14T12:31:02.052Z,12.27
2017-12-14T12:32:04.514Z,6.85
2017-12-14T12:33:07.022Z,9.00
2017-12-14T12:34:09.482Z,15.70
2017-12-14T12:35:11.951Z,13.57
2017-12-14T12:36:14.406Z,10.93
2017-12-14T12:37:16.870Z,9.55
2017-12-14T12:38:19.352Z,10.15
2017-12-14T12:39:21.842Z,11.02
2017-12-14T12:40:24.306Z,9.85
2017-12-14T12:41:26.755Z,4.50
2017-12-14T12:42:29.249Z,6.17
2017-12-14T12:43:31.718Z,6.50
2017-12-14T12:44:34.182Z,4.73
2017-12-14T12:45:36.652Z,8.27
2017-12-14T12:46:39.115Z,13.63
2017-12-14T12:47:41.601Z,5.07
2017-12-14T12:48:44.055Z,5.73
2017-12-14T12:49:46.537Z,10.50
2017-12-14T12:50:49.024Z,5.73
2017-12-14T12:51:51.505Z,7.33
2017-12-14T12:52:53.958Z,10.20
2017-12-14T12:53:56.427Z,7.30
2017-12-14T12:54:58.886Z,11.60
2017-12-14T12:56:01.341Z,6.70
2017-12-14T12:57:03.813Z,10.70
2017-12-14T12:58:06.280Z,5.43
2017-12-14T12:59:08.733Z,3.60
2017-12-14T13:00:11.195Z,6.80
2017-12-14T13:01:13.670Z,7.27
2017-12-14T13:02:16.131Z,7.30
2017-12-14T13:03:18.585Z,9.10
2017-12-14T13:04:21.065Z,6.20
2017-12-14T13:05:23.521Z,7.63
2017-12-14T13:06:25.982Z,4.83
2017-12-14T13:07:28.454Z,7.03
2017-12-14T13:08:30.945Z,6.30
2017-12-14T13:09:33.399Z,6.70
2017-12-14T13:10:37.479Z,5.37
2017-12-14T13:11:45.313Z,8.10
2017-12-14T13:12:47.767Z,7.53
2017-12-14T13:13:51.375Z,5.07
2017-12-14T13:14:54.957Z,5.37
2017-12-14T13:15:57.434Z,3.30
2017-12-14T13:16:59.887Z,6.23
2017-12-14T13:18:02.370Z,7.57
2017-12-14T13:19:04.835Z,7.60
2017-12-14T13:20:07.435Z,3.40
2017-12-14T13:21:09.900Z,4.20
2017-12-14T13:22:12.364Z,4.60
2017-12-14T13:23:14.820Z,3.97
2017-12-14T13:24:17.289Z,6.07
2017-12-14T13:25:19.758Z,7.73
2017-12-14T13:26:22.241Z,5.67
2017-12-14T13:27:24.769Z,4.37
2017-12-14T13:28:27.238Z,9.20
2017-12-14T13:29:29.698Z,7.77
2017-12-14T13:30:32.151Z,5.80
2017-12-14T13:31:34.602Z,6.93
2017-12-14T13:32:37.059Z,6.47
2017-12-14T13:33:39.522Z,5.30